sensor_id;sensor_type;location;lat;lon;timestamp;P1;durP1;ratioP1;P2;durP2;ratioP2
13071;SDS011;6602;58.934;11.166;2023-07-13T00:03:29;19.50;;;3.00;;
13071;SDS011;6602;58.934;11.166;2023-07-13T00:08:53;11.82;;;3.05;;
13071;SDS011;6602;58.934;11.166;2023-07-13T00:14:00;10.80;;;2.35;;
13071;SDS011;6602;58.934;11.166;2023-07-13T00:24:06;14.35;;;2.63;;
13071;SDS011;6602;58.934;11.166;2023-07-13T00:29:32;10.52;;;2.05;;
13071;SDS011;6602;58.934;11.166;2023-07-13T00:34:34;10.93;;;3.35;;
13071;SDS011;6602;58.934;11.166;2023-07-13T00:39:36;13.73;;;2.88;;
13071;SDS011;6602;58.934;11.166;2023-07-13T00:50:19;15.65;;;2.42;;
13071;SDS011;6602;58.934;11.166;2023-07-13T00:55:23;16.27;;;3.35;;
13071;SDS011;6602;58.934;11.166;2023-07-13T01:00:40;9.57;;;2.38;;
13071;SDS011;6602;58.934;11.166;2023-07-13T01:05:41;19.25;;;3.08;;
13071;SDS011;6602;58.934;11.166;2023-07-13T01:10:53;13.60;;;2.70;;
13071;SDS011;6602;58.934;11.166;2023-07-13T01:15:58;13.80;;;2.50;;
13071;SDS011;6602;58.934;11.166;2023-07-13T01:21:08;14.07;;;2.95;;
13071;SDS011;6602;58.934;11.166;2023-07-13T01:26:10;12.02;;;2.50;;
13071;SDS011;6602;58.934;11.166;2023-07-13T01:31:30;15.85;;;2.60;;
13071;SDS011;6602;58.934;11.166;2023-07-13T01:36:36;12.63;;;2.80;;
13071;SDS011;6602;58.934;11.166;2023-07-13T01:41:43;7.60;;;2.35;;
13071;SDS011;6602;58.934;11.166;2023-07-13T01:46:45;16.70;;;3.15;;
13071;SDS011;6602;58.934;11.166;2023-07-13T01:51:47;16.80;;;2.97;;
13071;SDS011;6602;58.934;11.166;2023-07-13T01:57:03;9.43;;;2.75;;
13071;SDS011;6602;58.934;11.166;2023-07-13T02:02:11;13.90;;;2.92;;
13071;SDS011;6602;58.934;11.166;2023-07-13T02:07:22;12.02;;;3.25;;
13071;SDS011;6602;58.934;11.166;2023-07-13T02:12:40;11.65;;;2.67;;
13071;SDS011;6602;58.934;11.166;2023-07-13T02:17:45;17.65;;;3.22;;
13071;SDS011;6602;58.934;11.166;2023-07-13T02:23:06;17.63;;;3.42;;
13071;SDS011;6602;58.934;11.166;2023-07-13T02:28:25;5.45;;;2.60;;
13071;SDS011;6602;58.934;11.166;2023-07-13T02:33:53;8.93;;;2.20;;
13071;SDS011;6602;58.934;11.166;2023-07-13T02:39:10;19.20;;;3.28;;
13071;SDS011;6602;58.934;11.166;2023-07-13T02:44:15;15.52;;;3.33;;
13071;SDS011;6602;58.934;11.166;2023-07-13T02:49:30;10.82;;;3.03;;
13071;SDS011;6602;58.934;11.166;2023-07-13T02:54:44;12.95;;;3.33;;
13071;SDS011;6602;58.934;11.166;2023-07-13T02:59:48;13.65;;;2.55;;
13071;SDS011;6602;58.934;11.166;2023-07-13T03:04:49;9.82;;;2.92;;
13071;SDS011;6602;58.934;11.166;2023-07-13T03:09:56;14.30;;;2.83;;
13071;SDS011;6602;58.934;11.166;2023-07-13T03:14:58;10.68;;;2.55;;
13071;SDS011;6602;58.934;11.166;2023-07-13T03:20:01;8.13;;;2.50;;
13071;SDS011;6602;58.934;11.166;2023-07-13T03:25:04;13.57;;;2.58;;
13071;SDS011;6602;58.934;11.166;2023-07-13T03:30:24;10.18;;;2.38;;
13071;SDS011;6602;58.934;11.166;2023-07-13T03:35:27;11.82;;;2.65;;
13071;SDS011;6602;58.934;11.166;2023-07-13T03:40:48;8.88;;;2.30;;
13071;SDS011;6602;58.934;11.166;2023-07-13T03:45:49;12.43;;;3.22;;
13071;SDS011;6602;58.934;11.166;2023-07-13T03:50:51;8.52;;;2.10;;
13071;SDS011;6602;58.934;11.166;2023-07-13T03:55:55;6.03;;;2.10;;
13071;SDS011;6602;58.934;11.166;2023-07-13T04:01:09;11.80;;;2.25;;
13071;SDS011;6602;58.934;11.166;2023-07-13T04:06:19;8.25;;;2.10;;
13071;SDS011;6602;58.934;11.166;2023-07-13T04:11:28;12.02;;;2.13;;
13071;SDS011;6602;58.934;11.166;2023-07-13T04:16:34;10.43;;;1.80;;
13071;SDS011;6602;58.934;11.166;2023-07-13T04:21:35;11.68;;;1.90;;
13071;SDS011;6602;58.934;11.166;2023-07-13T04:26:40;8.68;;;2.08;;
13071;SDS011;6602;58.934;11.166;2023-07-13T04:31:41;4.55;;;1.42;;
13071;SDS011;6602;58.934;11.166;2023-07-13T04:36:42;7.88;;;1.77;;
13071;SDS011;6602;58.934;11.166;2023-07-13T04:41:48;7.95;;;2.22;;
13071;SDS011;6602;58.934;11.166;2023-07-13T04:46:52;9.65;;;1.90;;
13071;SDS011;6602;58.934;11.166;2023-07-13T04:52:08;5.63;;;1.42;;
13071;SDS011;6602;58.934;11.166;2023-07-13T04:57:11;7.25;;;1.42;;
13071;SDS011;6602;58.934;11.166;2023-07-13T05:02:12;6.90;;;1.65;;
13071;SDS011;6602;58.934;11.166;2023-07-13T05:07:31;9.05;;;1.77;;
13071;SDS011;6602;58.934;11.166;2023-07-13T05:12:41;7.07;;;1.50;;
13071;SDS011;6602;58.934;11.166;2023-07-13T05:17:43;7.20;;;1.45;;
13071;SDS011;6602;58.934;11.166;2023-07-13T05:22:57;3.63;;;1.15;;
13071;SDS011;6602;58.934;11.166;2023-07-13T05:27:58;7.20;;;1.98;;
13071;SDS011;6602;58.934;11.166;2023-07-13T05:33:01;9.45;;;1.75;;
13071;SDS011;6602;58.934;11.166;2023-07-13T05:38:12;4.68;;;1.65;;
13071;SDS011;6602;58.934;11.166;2023-07-13T05:43:13;8.10;;;1.58;;
13071;SDS011;6602;58.934;11.166;2023-07-13T05:48:25;9.75;;;2.10;;
13071;SDS011;6602;58.934;11.166;2023-07-13T05:53:27;7.50;;;1.75;;
13071;SDS011;6602;58.934;11.166;2023-07-13T05:58:40;7.65;;;1.50;;
13071;SDS011;6602;58.934;11.166;2023-07-13T06:03:44;6.78;;;1.40;;
13071;SDS011;6602;58.934;11.166;2023-07-13T06:08:53;11.95;;;1.80;;
13071;SDS011;6602;58.934;11.166;2023-07-13T06:14:06;8.00;;;2.22;;
13071;SDS011;6602;58.934;11.166;2023-07-13T06:19:08;6.00;;;1.30;;
13071;SDS011;6602;58.934;11.166;2023-07-13T06:24:12;13.57;;;2.28;;
13071;SDS011;6602;58.934;11.166;2023-07-13T06:29:33;5.38;;;1.52;;
13071;SDS011;6602;58.934;11.166;2023-07-13T06:34:43;7.13;;;1.48;;
13071;SDS011;6602;58.934;11.166;2023-07-13T06:39:46;9.50;;;1.65;;
13071;SDS011;6602;58.934;11.166;2023-07-13T06:44:50;9.40;;;1.63;;
13071;SDS011;6602;58.934;11.166;2023-07-13T06:49:54;5.28;;;1.48;;
13071;SDS011;6602;58.934;11.166;2023-07-13T06:54:55;7.00;;;1.83;;
13071;SDS011;6602;58.934;11.166;2023-07-13T06:59:56;7.85;;;1.58;;
13071;SDS011;6602;58.934;11.166;2023-07-13T07:05:18;4.70;;;1.20;;
13071;SDS011;6602;58.934;11.166;2023-07-13T07:10:21;8.40;;;1.55;;
13071;SDS011;6602;58.934;11.166;2023-07-13T07:15:23;7.03;;;1.85;;
13071;SDS011;6602;58.934;11.166;2023-07-13T07:20:27;7.13;;;1.50;;
13071;SDS011;6602;58.934;11.166;2023-07-13T07:25:28;5.10;;;1.35;;
13071;SDS011;6602;58.934;11.166;2023-07-13T07:35:48;8.35;;;1.33;;
13071;SDS011;6602;58.934;11.166;2023-07-13T07:41:04;10.30;;;2.10;;
13071;SDS011;6602;58.934;11.166;2023-07-13T07:46:24;6.78;;;1.42;;
13071;SDS011;6602;58.934;11.166;2023-07-13T07:51:26;5.93;;;1.25;;
13071;SDS011;6602;58.934;11.166;2023-07-13T07:56:27;2.85;;;1.15;;
13071;SDS011;6602;58.934;11.166;2023-07-13T08:01:31;3.65;;;1.30;;
13071;SDS011;6602;58.934;11.166;2023-07-13T08:06:52;6.65;;;1.40;;
13071;SDS011;6602;58.934;11.166;2023-07-13T08:12:02;9.60;;;1.83;;
13071;SDS011;6602;58.934;11.166;2023-07-13T08:17:10;5.22;;;1.10;;
13071;SDS011;6602;58.934;11.166;2023-07-13T08:22:34;6.78;;;1.50;;
13071;SDS011;6602;58.934;11.166;2023-07-13T08:27:54;3.50;;;1.10;;
13071;SDS011;6602;58.934;11.166;2023-07-13T08:33:00;5.78;;;0.98;;
13071;SDS011;6602;58.934;11.166;2023-07-13T08:38:01;5.28;;;1.20;;
13071;SDS011;6602;58.934;11.166;2023-07-13T08:43:02;4.60;;;1.10;;
13071;SDS011;6602;58.934;11.166;2023-07-13T08:48:05;6.60;;;1.10;;
13071;SDS011;6602;58.934;11.166;2023-07-13T08:53:15;12.52;;;1.05;;
13071;SDS011;6602;58.934;11.166;2023-07-13T08:58:40;3.28;;;0.73;;
13071;SDS011;6602;58.934;11.166;2023-07-13T09:04:06;5.82;;;1.15;;
13071;SDS011;6602;58.934;11.166;2023-07-13T09:15:06;6.75;;;1.00;;
13071;SDS011;6602;58.934;11.166;2023-07-13T09:20:36;2.95;;;0.95;;
13071;SDS011;6602;58.934;11.166;2023-07-13T09:26:21;5.50;;;1.23;;
13071;SDS011;6602;58.934;11.166;2023-07-13T09:31:50;2.22;;;0.90;;
13071;SDS011;6602;58.934;11.166;2023-07-13T09:36:59;4.97;;;1.02;;
13071;SDS011;6602;58.934;11.166;2023-07-13T09:42:25;5.82;;;1.10;;
13071;SDS011;6602;58.934;11.166;2023-07-13T09:47:47;5.82;;;0.98;;
13071;SDS011;6602;58.934;11.166;2023-07-13T09:52:49;7.20;;;1.50;;
13071;SDS011;6602;58.934;11.166;2023-07-13T09:58:13;4.32;;;1.08;;
13071;SDS011;6602;58.934;11.166;2023-07-13T10:03:27;6.57;;;2.00;;
13071;SDS011;6602;58.934;11.166;2023-07-13T10:08:47;2.80;;;1.40;;
13071;SDS011;6602;58.934;11.166;2023-07-13T10:13:53;6.97;;;0.95;;
13071;SDS011;6602;58.934;11.166;2023-07-13T10:19:19;5.88;;;1.38;;
13071;SDS011;6602;58.934;11.166;2023-07-13T10:24:44;3.95;;;1.00;;
13071;SDS011;6602;58.934;11.166;2023-07-13T10:35:29;6.20;;;1.35;;
13071;SDS011;6602;58.934;11.166;2023-07-13T10:40:34;7.05;;;1.10;;
13071;SDS011;6602;58.934;11.166;2023-07-13T10:45:47;8.95;;;1.17;;
13071;SDS011;6602;58.934;11.166;2023-07-13T10:50:56;3.53;;;0.70;;
13071;SDS011;6602;58.934;11.166;2023-07-13T10:56:22;9.40;;;1.52;;
13071;SDS011;6602;58.934;11.166;2023-07-13T11:01:55;7.40;;;1.13;;
13071;SDS011;6602;58.934;11.166;2023-07-13T11:07:51;4.85;;;1.15;;
13071;SDS011;6602;58.934;11.166;2023-07-13T11:13:04;6.55;;;1.30;;
13071;SDS011;6602;58.934;11.166;2023-07-13T11:18:27;6.10;;;1.30;;
13071;SDS011;6602;58.934;11.166;2023-07-13T11:24:00;6.93;;;1.30;;
13071;SDS011;6602;58.934;11.166;2023-07-13T11:29:37;6.50;;;1.45;;
13071;SDS011;6602;58.934;11.166;2023-07-13T11:34:43;6.63;;;1.05;;
13071;SDS011;6602;58.934;11.166;2023-07-13T11:40:01;8.00;;;1.50;;
13071;SDS011;6602;58.934;11.166;2023-07-13T11:45:30;3.25;;;1.23;;
13071;SDS011;6602;58.934;11.166;2023-07-13T11:50:49;5.97;;;1.08;;
13071;SDS011;6602;58.934;11.166;2023-07-13T11:55:56;5.55;;;1.20;;
13071;SDS011;6602;58.934;11.166;2023-07-13T12:01:06;5.38;;;0.93;;
13071;SDS011;6602;58.934;11.166;2023-07-13T12:06:24;4.60;;;1.13;;
13071;SDS011;6602;58.934;11.166;2023-07-13T12:11:49;2.28;;;0.90;;
13071;SDS011;6602;58.934;11.166;2023-07-13T12:16:58;6.30;;;1.13;;
13071;SDS011;6602;58.934;11.166;2023-07-13T12:22:00;4.10;;;1.10;;
13071;SDS011;6602;58.934;11.166;2023-07-13T12:27:04;5.78;;;1.65;;
13071;SDS011;6602;58.934;11.166;2023-07-13T12:32:14;6.13;;;1.17;;
13071;SDS011;6602;58.934;11.166;2023-07-13T12:37:21;7.32;;;1.20;;
13071;SDS011;6602;58.934;11.166;2023-07-13T12:42:26;4.15;;;1.30;;
13071;SDS011;6602;58.934;11.166;2023-07-13T12:47:44;2.60;;;1.30;;
13071;SDS011;6602;58.934;11.166;2023-07-13T12:52:51;6.65;;;1.20;;
13071;SDS011;6602;58.934;11.166;2023-07-13T12:58:13;6.10;;;1.55;;
13071;SDS011;6602;58.934;11.166;2023-07-13T13:03:32;4.95;;;1.63;;
13071;SDS011;6602;58.934;11.166;2023-07-13T13:09:01;6.50;;;1.92;;
13071;SDS011;6602;58.934;11.166;2023-07-13T13:14:04;4.75;;;1.50;;
13071;SDS011;6602;58.934;11.166;2023-07-13T13:19:18;6.22;;;2.22;;
13071;SDS011;6602;58.934;11.166;2023-07-13T13:24:27;9.27;;;1.98;;
13071;SDS011;6602;58.934;11.166;2023-07-13T13:29:38;5.75;;;1.60;;
13071;SDS011;6602;58.934;11.166;2023-07-13T13:34:41;13.80;;;2.42;;
13071;SDS011;6602;58.934;11.166;2023-07-13T13:39:43;10.25;;;2.00;;
13071;SDS011;6602;58.934;11.166;2023-07-13T13:44:54;17.42;;;2.40;;
13071;SDS011;6602;58.934;11.166;2023-07-13T13:49:57;9.68;;;2.28;;
13071;SDS011;6602;58.934;11.166;2023-07-13T13:55:05;7.80;;;1.73;;
13071;SDS011;6602;58.934;11.166;2023-07-13T14:00:16;11.63;;;2.42;;
13071;SDS011;6602;58.934;11.166;2023-07-13T14:05:19;6.72;;;2.00;;
13071;SDS011;6602;58.934;11.166;2023-07-13T14:10:42;12.32;;;2.13;;
13071;SDS011;6602;58.934;11.166;2023-07-13T14:15:43;4.05;;;1.50;;
13071;SDS011;6602;58.934;11.166;2023-07-13T14:20:47;4.50;;;1.83;;
13071;SDS011;6602;58.934;11.166;2023-07-13T14:26:06;6.10;;;2.08;;
13071;SDS011;6602;58.934;11.166;2023-07-13T14:31:14;9.23;;;1.83;;
13071;SDS011;6602;58.934;11.166;2023-07-13T14:36:24;12.27;;;2.50;;
13071;SDS011;6602;58.934;11.166;2023-07-13T14:41:30;14.85;;;2.33;;
13071;SDS011;6602;58.934;11.166;2023-07-13T14:46:41;10.95;;;2.60;;
13071;SDS011;6602;58.934;11.166;2023-07-13T14:51:55;10.30;;;1.83;;
13071;SDS011;6602;58.934;11.166;2023-07-13T14:57:17;8.48;;;2.03;;
13071;SDS011;6602;58.934;11.166;2023-07-13T15:02:31;10.40;;;2.22;;
13071;SDS011;6602;58.934;11.166;2023-07-13T15:07:36;6.63;;;1.80;;
13071;SDS011;6602;58.934;11.166;2023-07-13T15:18:14;8.48;;;2.03;;
13071;SDS011;6602;58.934;11.166;2023-07-13T15:23:24;12.02;;;3.08;;
13071;SDS011;6602;58.934;11.166;2023-07-13T15:28:30;13.07;;;2.50;;
13071;SDS011;6602;58.934;11.166;2023-07-13T15:33:34;11.65;;;2.40;;
13071;SDS011;6602;58.934;11.166;2023-07-13T15:38:43;13.88;;;3.00;;
13071;SDS011;6602;58.934;11.166;2023-07-13T15:43:57;15.55;;;2.90;;
13071;SDS011;6602;58.934;11.166;2023-07-13T15:48:59;12.02;;;3.15;;
13071;SDS011;6602;58.934;11.166;2023-07-13T15:54:03;18.63;;;3.38;;
13071;SDS011;6602;58.934;11.166;2023-07-13T15:59:10;17.63;;;3.72;;
13071;SDS011;6602;58.934;11.166;2023-07-13T16:04:15;12.27;;;2.95;;
13071;SDS011;6602;58.934;11.166;2023-07-13T16:09:20;15.55;;;3.47;;
13071;SDS011;6602;58.934;11.166;2023-07-13T16:15:20;13.88;;;3.03;;
13071;SDS011;6602;58.934;11.166;2023-07-13T16:20:31;18.02;;;3.28;;
13071;SDS011;6602;58.934;11.166;2023-07-13T16:31:06;11.13;;;2.63;;
13071;SDS011;6602;58.934;11.166;2023-07-13T16:36:12;19.95;;;3.75;;
13071;SDS011;6602;58.934;11.166;2023-07-13T16:41:18;13.10;;;2.92;;
13071;SDS011;6602;58.934;11.166;2023-07-13T16:46:32;17.65;;;2.85;;
13071;SDS011;6602;58.934;11.166;2023-07-13T16:51:34;13.77;;;3.50;;
13071;SDS011;6602;58.934;11.166;2023-07-13T16:56:43;9.80;;;3.20;;
13071;SDS011;6602;58.934;11.166;2023-07-13T17:02:02;14.10;;;3.53;;
13071;SDS011;6602;58.934;11.166;2023-07-13T17:07:14;10.23;;;2.53;;
13071;SDS011;6602;58.934;11.166;2023-07-13T17:12:19;18.85;;;3.58;;
13071;SDS011;6602;58.934;11.166;2023-07-13T17:17:34;14.85;;;3.10;;
13071;SDS011;6602;58.934;11.166;2023-07-13T17:22:42;13.70;;;3.55;;
13071;SDS011;6602;58.934;11.166;2023-07-13T17:27:53;14.13;;;3.00;;
13071;SDS011;6602;58.934;11.166;2023-07-13T17:33:00;19.20;;;2.70;;
13071;SDS011;6602;58.934;11.166;2023-07-13T17:38:05;22.27;;;3.92;;
13071;SDS011;6602;58.934;11.166;2023-07-13T17:43:18;15.48;;;3.58;;
13071;SDS011;6602;58.934;11.166;2023-07-13T17:54:16;14.05;;;3.38;;
13071;SDS011;6602;58.934;11.166;2023-07-13T17:59:32;17.65;;;3.80;;
13071;SDS011;6602;58.934;11.166;2023-07-13T18:04:38;18.50;;;3.92;;
13071;SDS011;6602;58.934;11.166;2023-07-13T18:09:43;22.77;;;4.53;;
13071;SDS011;6602;58.934;11.166;2023-07-13T18:14:47;18.88;;;4.20;;
13071;SDS011;6602;58.934;11.166;2023-07-13T18:19:53;23.77;;;4.60;;
13071;SDS011;6602;58.934;11.166;2023-07-13T18:24:55;15.23;;;4.15;;
13071;SDS011;6602;58.934;11.166;2023-07-13T18:29:56;20.05;;;3.80;;
13071;SDS011;6602;58.934;11.166;2023-07-13T18:35:00;20.02;;;3.72;;
13071;SDS011;6602;58.934;11.166;2023-07-13T18:40:13;15.05;;;3.83;;
13071;SDS011;6602;58.934;11.166;2023-07-13T18:45:16;17.98;;;4.25;;
13071;SDS011;6602;58.934;11.166;2023-07-13T18:50:20;18.08;;;4.45;;
13071;SDS011;6602;58.934;11.166;2023-07-13T18:55:26;13.95;;;4.03;;
13071;SDS011;6602;58.934;11.166;2023-07-13T19:00:31;19.35;;;3.47;;
13071;SDS011;6602;58.934;11.166;2023-07-13T19:05:39;22.75;;;3.88;;
13071;SDS011;6602;58.934;11.166;2023-07-13T19:11:08;16.48;;;3.50;;
13071;SDS011;6602;58.934;11.166;2023-07-13T19:16:13;18.20;;;3.53;;
13071;SDS011;6602;58.934;11.166;2023-07-13T19:21:29;26.40;;;3.75;;
13071;SDS011;6602;58.934;11.166;2023-07-13T19:26:48;25.05;;;3.90;;
13071;SDS011;6602;58.934;11.166;2023-07-13T19:31:58;15.48;;;4.13;;
13071;SDS011;6602;58.934;11.166;2023-07-13T19:37:01;14.50;;;4.00;;
13071;SDS011;6602;58.934;11.166;2023-07-13T19:42:24;17.88;;;4.25;;
13071;SDS011;6602;58.934;11.166;2023-07-13T19:47:35;20.25;;;3.55;;
13071;SDS011;6602;58.934;11.166;2023-07-13T19:52:42;17.17;;;4.18;;
13071;SDS011;6602;58.934;11.166;2023-07-13T19:57:50;20.02;;;3.95;;
13071;SDS011;6602;58.934;11.166;2023-07-13T20:03:13;14.77;;;4.65;;
13071;SDS011;6602;58.934;11.166;2023-07-13T20:08:30;13.43;;;3.45;;
13071;SDS011;6602;58.934;11.166;2023-07-13T20:13:39;20.08;;;3.08;;
13071;SDS011;6602;58.934;11.166;2023-07-13T20:18:48;17.48;;;3.35;;
13071;SDS011;6602;58.934;11.166;2023-07-13T20:24:01;17.85;;;3.83;;
13071;SDS011;6602;58.934;11.166;2023-07-13T20:29:13;18.15;;;3.30;;
13071;SDS011;6602;58.934;11.166;2023-07-13T20:34:23;17.13;;;3.28;;
13071;SDS011;6602;58.934;11.166;2023-07-13T20:45:14;15.68;;;3.30;;
13071;SDS011;6602;58.934;11.166;2023-07-13T20:50:30;13.68;;;3.00;;
13071;SDS011;6602;58.934;11.166;2023-07-13T20:56:22;15.27;;;3.75;;
13071;SDS011;6602;58.934;11.166;2023-07-13T21:07:23;13.50;;;2.90;;
13071;SDS011;6602;58.934;11.166;2023-07-13T21:12:43;12.73;;;3.00;;
13071;SDS011;6602;58.934;11.166;2023-07-13T21:17:51;9.02;;;2.53;;
13071;SDS011;6602;58.934;11.166;2023-07-13T21:23:10;11.43;;;2.30;;
13071;SDS011;6602;58.934;11.166;2023-07-13T21:28:33;11.63;;;2.40;;
13071;SDS011;6602;58.934;11.166;2023-07-13T21:33:39;8.73;;;2.03;;
13071;SDS011;6602;58.934;11.166;2023-07-13T21:38:42;10.50;;;2.33;;
13071;SDS011;6602;58.934;11.166;2023-07-13T21:43:59;8.23;;;2.42;;
13071;SDS011;6602;58.934;11.166;2023-07-13T21:49:09;7.47;;;2.03;;
13071;SDS011;6602;58.934;11.166;2023-07-13T21:54:16;10.65;;;2.30;;
13071;SDS011;6602;58.934;11.166;2023-07-13T21:59:27;8.75;;;1.90;;
13071;SDS011;6602;58.934;11.166;2023-07-13T22:04:28;3.75;;;1.20;;
13071;SDS011;6602;58.934;11.166;2023-07-13T22:09:37;9.15;;;2.05;;
13071;SDS011;6602;58.934;11.166;2023-07-13T22:14:39;4.75;;;1.23;;
13071;SDS011;6602;58.934;11.166;2023-07-13T22:19:42;4.32;;;1.42;;
13071;SDS011;6602;58.934;11.166;2023-07-13T22:24:51;12.50;;;1.73;;
13071;SDS011;6602;58.934;11.166;2023-07-13T22:29:56;8.40;;;0.98;;
13071;SDS011;6602;58.934;11.166;2023-07-13T22:34:59;4.35;;;1.25;;
13071;SDS011;6602;58.934;11.166;2023-07-13T22:40:20;6.93;;;1.13;;
13071;SDS011;6602;58.934;11.166;2023-07-13T22:45:22;4.40;;;1.52;;
13071;SDS011;6602;58.934;11.166;2023-07-13T22:50:23;4.15;;;1.30;;
13071;SDS011;6602;58.934;11.166;2023-07-13T22:55:24;8.20;;;1.50;;
13071;SDS011;6602;58.934;11.166;2023-07-13T23:00:26;4.53;;;1.45;;
13071;SDS011;6602;58.934;11.166;2023-07-13T23:05:31;10.68;;;1.70;;
13071;SDS011;6602;58.934;11.166;2023-07-13T23:10:35;5.20;;;1.60;;
13071;SDS011;6602;58.934;11.166;2023-07-13T23:15:38;3.60;;;1.33;;
13071;SDS011;6602;58.934;11.166;2023-07-13T23:20:43;3.88;;;0.98;;
13071;SDS011;6602;58.934;11.166;2023-07-13T23:25:49;5.75;;;1.40;;
13071;SDS011;6602;58.934;11.166;2023-07-13T23:30:50;10.13;;;1.40;;
13071;SDS011;6602;58.934;11.166;2023-07-13T23:35:55;12.18;;;1.85;;
13071;SDS011;6602;58.934;11.166;2023-07-13T23:41:15;6.35;;;1.50;;
13071;SDS011;6602;58.934;11.166;2023-07-13T23:51:54;3.00;;;1.00;;
13071;SDS011;6602;58.934;11.166;2023-07-13T23:57:04;3.05;;;0.90;;
